Time;durP1;ratioP1;P1;durP2;ratioP2;P2;SDS_P1;SDS_P2;PMS_P1;PMS_P2;Temp;Humidity;BMP_temperature;BMP_pressure;BME280_temperature;BME280_humidity;BME280_pressure;Samples;Min_cycle;Max_cycle;Signal;HPM_P1;HPM_P2
2024/04/19 00:01:09;;;;;;;7.53;3.83;;;8.70;83.70;;;;;;5366844;26;20011;-63
2024/04/19 00:03:35;;;;;;;7.43;4.50;;;8.60;84.30;;;;;;5379353;26;20446;-64
2024/04/19 00:06:01;;;;;;;7.43;4.00;;;8.60;84.90;;;;;;5360976;26;20024;-62
2024/04/19 00:08:27;;;;;;;6.78;4.20;;;8.60;85.20;;;;;;5363164;26;20470;-62
2024/04/19 00:10:53;;;;;;;7.57;4.07;;;8.60;85.40;;;;;;5369725;26;20000;-64
2024/04/19 00:13:19;;;;;;;6.63;4.13;;;8.60;85.50;;;;;;5366214;26;20532;-64
2024/04/19 00:15:45;;;;;;;7.10;4.28;;;8.70;85.70;;;;;;5365516;26;20012;-63
2024/04/19 00:18:11;;;;;;;7.70;4.65;;;8.60;86.00;;;;;;5368933;26;20008;-63
2024/04/19 00:20:38;;;;;;;7.22;4.78;;;8.60;86.40;;;;;;5350732;26;19997;-63
2024/04/19 00:23:04;;;;;;;7.68;4.82;;;8.60;86.50;;;;;;5387982;26;20004;-64
2024/04/19 00:25:29;;;;;;;8.93;5.20;;;8.70;86.80;;;;;;5358826;26;20333;-62
2024/04/19 00:27:55;;;;;;;8.25;5.32;;;8.70;87.00;;;;;;5353940;26;20013;-62
2024/04/19 00:30:20;;;;;;;10.10;5.60;;;8.60;87.40;;;;;;5371966;26;20350;-61
2024/04/19 00:32:46;;;;;;;8.73;6.22;;;8.60;88.10;;;;;;5348840;26;20001;-63
2024/04/19 00:35:11;;;;;;;10.35;6.22;;;8.60;88.40;;;;;;5357423;26;20020;-62
2024/04/19 00:37:37;;;;;;;8.18;5.60;;;8.60;88.70;;;;;;5369314;26;20425;-63
2024/04/19 00:40:03;;;;;;;8.70;5.85;;;8.60;89.00;;;;;;5356652;26;20471;-63
2024/04/19 00:42:28;;;;;;;11.20;6.40;;;8.60;89.50;;;;;;5372866;26;20357;-62
2024/04/19 00:44:54;;;;;;;9.25;5.47;;;8.60;89.80;;;;;;5363834;26;20004;-64
2024/04/19 00:47:19;;;;;;;8.85;5.63;;;8.60;90.00;;;;;;5368766;26;20008;-64
2024/04/19 00:49:45;;;;;;;6.93;5.10;;;8.50;90.00;;;;;;5360707;26;20421;-61
2024/04/19 00:52:12;;;;;;;9.25;5.43;;;8.60;90.10;;;;;;5371474;26;20019;-64
2024/04/19 00:54:39;;;;;;;7.97;5.53;;;8.60;90.10;;;;;;5363590;26;20349;-61
2024/04/19 00:57:05;;;;;;;6.80;5.00;;;8.60;90.10;;;;;;5354317;26;21417;-64
2024/04/19 00:59:31;;;;;;;6.63;5.15;;;8.60;90.20;;;;;;5368650;26;20008;-64
2024/04/19 01:01:57;;;;;;;6.53;5.20;;;8.70;90.30;;;;;;5354466;26;20037;-64
2024/04/19 01:04:22;;;;;;;8.77;5.80;;;8.70;90.30;;;;;;5364722;26;20000;-63
2024/04/19 01:06:48;;;;;;;9.18;5.75;;;8.60;90.50;;;;;;5369357;26;19996;-63
2024/04/19 01:09:14;;;;;;;9.00;5.53;;;8.70;90.60;;;;;;5373998;26;20032;-64
2024/04/19 01:11:40;;;;;;;7.93;5.70;;;8.60;90.80;;;;;;5368916;26;20050;-64
2024/04/19 01:14:07;;;;;;;9.02;5.80;;;8.60;90.90;;;;;;5358037;26;20110;-63
2024/04/19 01:16:33;;;;;;;7.90;5.82;;;8.60;91.00;;;;;;5364388;26;19993;-63
2024/04/19 01:18:59;;;;;;;7.13;5.03;;;8.60;91.20;;;;;;5358729;26;20000;-61
2024/04/19 01:21:25;;;;;;;10.18;6.68;;;8.60;91.30;;;;;;5376080;26;20018;-61
2024/04/19 01:24:08;;;;;;;6.55;5.45;;;8.60;91.40;;;;;;5371770;26;20001;-63
2024/04/19 01:26:33;;;;;;;8.27;5.10;;;8.60;91.50;;;;;;5362569;26;19996;-62
2024/04/19 01:28:59;;;;;;;7.22;5.30;;;8.60;91.60;;;;;;5365533;26;20024;-63
2024/04/19 01:31:24;;;;;;;7.22;5.05;;;8.60;91.70;;;;;;5359057;26;19997;-63
2024/04/19 01:33:50;;;;;;;6.22;5.00;;;8.70;91.70;;;;;;5365429;26;20032;-62
2024/04/19 01:36:16;;;;;;;7.70;4.70;;;8.70;91.80;;;;;;5368081;26;20008;-57
2024/04/19 01:38:41;;;;;;;6.40;4.75;;;8.70;91.80;;;;;;5371664;26;20008;-62
2024/04/19 01:41:07;;;;;;;9.48;5.18;;;8.70;91.90;;;;;;5360764;26;20015;-60
2024/04/19 01:43:33;;;;;;;7.45;4.72;;;8.70;92.10;;;;;;5353470;26;19992;-62
2024/04/19 01:45:58;;;;;;;6.75;4.43;;;8.70;92.10;;;;;;5369148;26;20007;-61
2024/04/19 01:48:24;;;;;;;6.72;3.90;;;8.70;92.10;;;;;;5346793;26;20012;-61
2024/04/19 01:50:49;;;;;;;6.45;4.20;;;8.80;92.10;;;;;;5354858;26;20410;-60
2024/04/19 01:53:15;;;;;;;5.32;3.67;;;8.80;92.20;;;;;;5363216;26;20008;-61
2024/04/19 01:55:40;;;;;;;5.53;3.90;;;8.80;92.00;;;;;;5369162;26;20066;-63
2024/04/19 01:58:06;;;;;;;6.90;3.70;;;8.80;92.10;;;;;;5370107;26;20069;-63
2024/04/19 02:00:31;;;;;;;8.00;3.90;;;8.80;92.10;;;;;;5370702;26;20004;-63
2024/04/19 02:02:57;;;;;;;4.97;3.42;;;8.80;92.20;;;;;;5361695;26;20028;-62
2024/04/19 02:05:22;;;;;;;5.20;3.55;;;8.90;92.20;;;;;;5363392;26;20074;-60
2024/04/19 02:07:48;;;;;;;4.60;3.40;;;8.90;92.20;;;;;;5360778;26;20005;-63
2024/04/19 02:10:13;;;;;;;7.53;4.30;;;9.00;92.10;;;;;;5346158;26;20104;-62
2024/04/19 02:12:39;;;;;;;6.40;3.90;;;8.90;92.20;;;;;;5369684;26;20395;-62
2024/04/19 02:15:05;;;;;;;8.18;3.67;;;8.90;92.30;;;;;;5359948;26;20012;-63
2024/04/19 02:17:31;;;;;;;7.22;3.45;;;8.80;92.30;;;;;;5359405;26;20074;-63
2024/04/19 02:19:56;;;;;;;5.95;4.10;;;8.90;92.40;;;;;;5365616;26;20008;-64
2024/04/19 02:22:22;;;;;;;6.63;4.22;;;8.90;92.40;;;;;;5369274;26;19993;-63
2024/04/19 02:24:47;;;;;;;8.43;5.10;;;8.90;92.50;;;;;;5355581;26;19996;-62
2024/04/19 02:32:41;;;;;;;7.90;5.00;;;8.90;92.60;;;;;;5369452;26;20015;-59
2024/04/19 02:35:07;;;;;;;7.03;5.47;;;8.90;92.60;;;;;;5356198;26;20434;-59
2024/04/19 02:37:32;;;;;;;7.60;5.53;;;8.90;92.70;;;;;;5362854;26;20011;-62
2024/04/19 02:39:58;;;;;;;7.07;5.35;;;8.90;92.80;;;;;;5350656;26;20462;-60
2024/04/19 02:42:23;;;;;;;7.10;5.63;;;8.90;92.80;;;;;;5355038;26;20663;-64
2024/04/19 02:44:49;;;;;;;7.80;4.82;;;8.90;92.90;;;;;;5361734;26;20423;-62
2024/04/19 02:47:14;;;;;;;6.70;5.22;;;8.90;93.00;;;;;;5349940;26;20013;-62
2024/04/19 02:49:40;;;;;;;7.13;5.38;;;8.80;93.00;;;;;;5352008;26;20445;-62
2024/04/19 02:52:05;;;;;;;6.95;4.38;;;8.80;93.20;;;;;;5366526;26;20324;-61
2024/04/19 02:54:31;;;;;;;7.00;5.03;;;8.80;93.30;;;;;;5358673;26;20004;-63
2024/04/19 02:56:56;;;;;;;5.70;4.70;;;8.80;93.50;;;;;;5350704;26;20001;-64
2024/04/19 02:59:22;;;;;;;6.40;4.50;;;8.80;93.60;;;;;;5357347;26;19997;-60
2024/04/19 03:01:48;;;;;;;6.50;4.50;;;8.80;93.70;;;;;;5361238;26;19996;-59
2024/04/19 03:04:13;;;;;;;6.55;4.30;;;8.80;93.80;;;;;;5354609;26;20008;-62
2024/04/19 03:06:39;;;;;;;6.70;4.88;;;8.80;93.80;;;;;;5361250;26;20004;-61
2024/04/19 03:09:04;;;;;;;7.47;4.85;;;8.80;93.90;;;;;;5352250;26;20398;-62
2024/04/19 03:11:30;;;;;;;8.40;5.10;;;8.80;94.10;;;;;;5357091;26;20008;-58
2024/04/19 03:13:56;;;;;;;6.32;4.95;;;8.80;94.20;;;;;;5371446;26;20469;-61
2024/04/19 03:16:21;;;;;;;5.47;4.80;;;8.70;94.40;;;;;;5368363;26;19992;-61
2024/04/19 03:18:47;;;;;;;8.35;5.38;;;8.70;94.50;;;;;;5362160;26;19996;-62
2024/04/19 03:21:14;;;;;;;7.80;6.25;;;8.80;94.50;;;;;;5350119;26;20001;-60
2024/04/19 03:23:39;;;;;;;6.30;4.82;;;8.80;94.50;;;;;;5368420;26;20340;-62
2024/04/19 03:26:05;;;;;;;5.93;5.00;;;8.80;94.50;;;;;;5368796;26;20020;-62
2024/04/19 03:28:31;;;;;;;7.53;5.18;;;8.80;94.50;;;;;;5364385;26;20000;-62
2024/04/19 03:30:56;;;;;;;5.70;5.10;;;8.90;94.60;;;;;;5369246;26;20256;-64
2024/04/19 03:33:22;;;;;;;5.60;4.40;;;8.80;94.60;;;;;;5362311;26;20015;-63
2024/04/19 03:35:48;;;;;;;6.53;5.30;;;9.00;94.60;;;;;;5373374;26;20004;-64
2024/04/19 03:38:14;;;;;;;6.25;4.97;;;8.90;94.60;;;;;;5364924;26;20070;-61
2024/04/19 03:40:41;;;;;;;7.55;5.10;;;8.90;94.60;;;;;;5367525;26;20010;-62
2024/04/19 03:43:10;;;;;;;5.25;4.75;;;8.90;94.70;;;;;;5352850;26;21737;-63
2024/04/19 03:45:43;;;;;;;5.88;4.43;;;8.90;94.80;;;;;;5355046;26;20001;-62
2024/04/19 03:48:09;;;;;;;5.35;4.05;;;8.80;94.80;;;;;;5361153;26;20013;-63
2024/04/19 03:50:35;;;;;;;4.97;4.45;;;8.90;95.00;;;;;;5359256;26;20009;-63
2024/04/19 03:53:00;;;;;;;4.88;4.30;;;8.90;95.00;;;;;;5358925;26;20011;-61
2024/04/19 03:55:26;;;;;;;5.43;4.70;;;8.80;95.10;;;;;;5367172;26;20447;-62
2024/04/19 03:57:52;;;;;;;4.88;4.25;;;8.90;95.20;;;;;;5374741;26;20011;-62
2024/04/19 04:00:18;;;;;;;5.13;4.10;;;8.80;95.20;;;;;;5373195;26;20024;-61
2024/04/19 04:02:43;;;;;;;5.93;5.32;;;8.90;95.30;;;;;;5369761;26;20461;-62
2024/04/19 04:05:09;;;;;;;6.50;5.05;;;8.90;95.30;;;;;;5369420;26;19997;-59
2024/04/19 04:07:34;;;;;;;4.80;4.30;;;8.90;95.40;;;;;;5362207;26;19997;-60
2024/04/19 04:10:00;;;;;;;5.95;5.28;;;8.90;95.40;;;;;;5360968;26;20783;-62
2024/04/19 04:12:26;;;;;;;6.57;5.85;;;8.90;95.50;;;;;;5369010;26;20637;-63
2024/04/19 04:14:51;;;;;;;5.82;5.18;;;8.80;95.50;;;;;;5360200;26;20012;-61
2024/04/19 04:17:17;;;;;;;5.05;4.55;;;8.80;95.70;;;;;;5372532;26;20016;-60
2024/04/19 04:19:42;;;;;;;6.03;4.55;;;8.80;95.80;;;;;;5370880;26;20000;-63
2024/04/19 04:22:08;;;;;;;5.15;4.65;;;8.80;95.80;;;;;;5370624;26;20019;-62
2024/04/19 04:24:33;;;;;;;5.32;4.82;;;8.80;95.80;;;;;;5367668;26;20007;-62
2024/04/19 04:26:59;;;;;;;6.45;5.70;;;8.80;95.90;;;;;;5359604;26;20031;-62
2024/04/19 04:29:27;;;;;;;5.55;5.00;;;8.80;96.00;;;;;;5368492;26;20008;-63
2024/04/19 04:31:53;;;;;;;6.25;5.50;;;8.80;96.10;;;;;;5357881;26;19993;-64
2024/04/19 04:34:18;;;;;;;5.55;5.05;;;8.80;96.20;;;;;;5348906;26;20012;-63
2024/04/19 04:36:44;;;;;;;5.15;4.63;;;8.90;96.30;;;;;;5363243;26;20687;-63
2024/04/19 04:39:09;;;;;;;5.68;5.18;;;8.90;96.30;;;;;;5354453;26;20007;-63
2024/04/19 04:41:39;;;;;;;5.85;5.35;;;8.90;96.30;;;;;;5361787;26;20340;-63
2024/04/19 04:44:10;;;;;;;5.82;5.32;;;9.00;96.40;;;;;;5370178;26;20000;-64
2024/04/19 04:46:36;;;;;;;6.00;5.40;;;8.90;96.50;;;;;;5360431;26;19997;-64
2024/04/19 04:49:04;;;;;;;5.68;5.18;;;9.00;96.50;;;;;;5358778;26;20463;-63
2024/04/19 04:51:29;;;;;;;6.18;5.57;;;9.00;96.50;;;;;;5370061;26;20408;-63
2024/04/19 04:53:55;;;;;;;5.50;5.00;;;9.00;96.50;;;;;;5363741;26;20008;-62
2024/04/19 04:56:20;;;;;;;5.15;4.65;;;9.10;96.50;;;;;;5367151;26;20000;-62
2024/04/19 04:58:46;;;;;;;5.18;4.68;;;9.10;96.40;;;;;;5355770;26;20004;-64
2024/04/19 05:01:11;;;;;;;4.53;4.13;;;9.20;96.70;;;;;;5366418;26;20351;-63
2024/04/19 05:03:37;;;;;;;4.35;3.95;;;9.20;96.40;;;;;;5356949;26;20440;-61
2024/04/19 05:06:03;;;;;;;4.70;4.30;;;9.20;96.30;;;;;;5366434;26;20074;-61
2024/04/19 05:08:28;;;;;;;5.05;4.65;;;9.30;96.30;;;;;;5360826;26;20011;-62
2024/04/19 05:10:54;;;;;;;5.47;4.97;;;9.30;96.30;;;;;;5365748;26;20005;-61
2024/04/19 05:13:19;;;;;;;5.40;4.90;;;9.30;96.30;;;;;;5358406;26;20000;-59
2024/04/19 05:15:47;;;;;;;5.40;4.90;;;9.40;96.40;;;;;;5365403;26;20015;-60
2024/04/19 05:18:13;;;;;;;5.45;4.35;;;9.40;96.40;;;;;;5352257;26;20671;-59
2024/04/19 05:20:38;;;;;;;4.38;3.97;;;9.40;96.40;;;;;;5364690;26;20009;-59
2024/04/19 05:23:04;;;;;;;4.20;3.80;;;9.50;96.40;;;;;;5368794;26;20007;-59
2024/04/19 05:25:29;;;;;;;4.70;4.28;;;9.50;96.40;;;;;;5367544;26;20001;-63
2024/04/19 05:27:55;;;;;;;5.18;4.68;;;9.50;96.40;;;;;;5369422;26;19996;-62
2024/04/19 05:30:20;;;;;;;5.82;5.28;;;9.60;96.50;;;;;;5362548;26;20000;-63
2024/04/19 05:32:46;;;;;;;5.38;4.88;;;9.60;96.50;;;;;;5369170;26;20000;-63
2024/04/19 05:35:11;;;;;;;6.30;5.38;;;9.60;96.60;;;;;;5374509;26;19996;-63
2024/04/19 05:37:37;;;;;;;4.88;4.47;;;9.70;96.60;;;;;;5358835;26;20896;-62
2024/04/19 05:40:03;;;;;;;5.25;4.75;;;9.70;96.60;;;;;;5359078;26;20015;-62
2024/04/19 05:42:29;;;;;;;5.15;4.65;;;9.80;96.60;;;;;;5369904;26;20000;-60
2024/04/19 05:44:54;;;;;;;4.80;4.40;;;9.80;96.60;;;;;;5366974;26;20061;-60
2024/04/19 05:47:20;;;;;;;5.70;4.80;;;9.90;96.60;;;;;;5360761;26;19996;-61
2024/04/19 05:49:45;;;;;;;5.90;4.55;;;9.90;96.60;;;;;;5369662;26;20009;-62
2024/04/19 05:52:11;;;;;;;4.80;4.30;;;10.00;96.60;;;;;;5364188;26;20402;-62
2024/04/19 05:54:36;;;;;;;5.75;4.80;;;10.00;96.70;;;;;;5361190;26;20500;-61
2024/04/19 05:57:02;;;;;;;4.25;3.80;;;10.00;96.70;;;;;;5360418;26;19996;-60
2024/04/19 05:59:28;;;;;;;4.47;4.07;;;10.10;96.80;;;;;;5364124;26;20005;-63
2024/04/19 06:01:53;;;;;;;5.38;4.05;;;10.10;96.70;;;;;;5362045;26;20340;-63
2024/04/19 06:04:19;;;;;;;4.82;4.32;;;10.20;96.80;;;;;;5365710;26;20070;-63
2024/04/19 06:06:44;;;;;;;5.07;4.30;;;10.20;96.70;;;;;;5365208;26;20685;-63
2024/04/19 06:09:10;;;;;;;6.55;5.10;;;10.30;96.70;;;;;;5353810;26;20389;-63
2024/04/19 06:11:35;;;;;;;5.00;4.35;;;10.30;96.80;;;;;;5374083;26;20098;-62
2024/04/19 06:14:01;;;;;;;6.50;4.63;;;10.30;96.80;;;;;;5356935;26;20020;-63
2024/04/19 06:16:26;;;;;;;5.28;4.07;;;10.30;96.80;;;;;;5352046;26;20343;-64
2024/04/19 06:18:52;;;;;;;5.68;4.20;;;10.40;96.80;;;;;;5353153;26;20467;-64
2024/04/19 06:21:17;;;;;;;8.90;5.50;;;10.40;96.80;;;;;;5359874;26;20488;-63
2024/04/19 06:23:43;;;;;;;9.32;5.20;;;10.40;96.80;;;;;;5365241;26;19993;-62
2024/04/19 06:26:08;;;;;;;10.38;4.78;;;10.40;96.90;;;;;;5354450;26;20327;-64
2024/04/19 06:28:38;;;;;;;7.38;4.70;;;10.40;96.90;;;;;;5362776;26;20415;-64
2024/04/19 06:31:11;;;;;;;7.82;4.80;;;10.40;96.90;;;;;;5355934;26;20436;-64
2024/04/19 06:33:40;;;;;;;7.63;4.82;;;10.40;97.30;;;;;;5362411;26;20020;-63
2024/04/19 06:36:05;;;;;;;7.35;4.30;;;10.50;97.10;;;;;;5359621;26;20301;-63
2024/04/19 06:38:32;;;;;;;8.13;4.57;;;10.50;97.00;;;;;;5372841;26;20000;-63
2024/04/19 06:40:58;;;;;;;10.57;4.82;;;10.60;97.00;;;;;;5373269;26;19996;-62
2024/04/19 06:43:23;;;;;;;11.25;5.15;;;10.70;96.80;;;;;;5363872;26;20073;-63
2024/04/19 06:45:49;;;;;;;9.10;3.95;;;10.80;96.80;;;;;;5358411;26;20098;-63
2024/04/19 06:48:14;;;;;;;9.45;4.55;;;10.80;96.70;;;;;;5367469;26;19996;-63
2024/04/19 06:50:40;;;;;;;9.00;4.60;;;10.80;96.70;;;;;;5364340;26;20022;-63
2024/04/19 06:53:05;;;;;;;9.73;4.60;;;10.90;96.70;;;;;;5355411;26;20019;-63
2024/04/19 06:55:34;;;;;;;9.02;4.45;;;10.90;96.90;;;;;;5366389;26;20455;-66
2024/04/19 06:57:59;;;;;;;9.02;3.67;;;11.00;96.60;;;;;;5368170;26;20069;-66
2024/04/19 07:00:25;;;;;;;10.80;3.85;;;11.10;96.50;;;;;;5362004;26;20016;-64
2024/04/19 07:02:51;;;;;;;7.60;3.35;;;11.10;96.40;;;;;;5356516;26;20007;-63
2024/04/19 07:05:19;;;;;;;10.32;3.88;;;11.20;96.40;;;;;;5361510;26;19997;-64
2024/04/19 07:07:48;;;;;;;10.13;3.20;;;11.20;96.30;;;;;;5352772;26;20000;-64
2024/04/19 07:10:14;;;;;;;10.02;3.58;;;11.30;96.30;;;;;;5364900;26;20005;-64
2024/04/19 07:12:40;;;;;;;11.75;3.80;;;11.30;96.20;;;;;;5369112;26;20363;-64
2024/04/19 07:15:06;;;;;;;14.38;3.70;;;11.30;96.10;;;;;;5373368;26;20000;-62
2024/04/19 07:17:33;;;;;;;10.15;3.53;;;11.30;96.00;;;;;;5357347;26;20451;-63
2024/04/19 07:19:59;;;;;;;8.60;3.10;;;11.30;96.00;;;;;;5351638;26;20023;-63
2024/04/19 07:22:25;;;;;;;11.13;3.75;;;11.40;96.10;;;;;;5355793;26;20003;-64
2024/04/19 07:24:50;;;;;;;10.15;3.10;;;11.40;95.90;;;;;;5373401;26;20000;-64
2024/04/19 07:27:16;;;;;;;12.75;3.10;;;11.50;95.90;;;;;;5373468;26;20004;-64
2024/04/19 07:29:41;;;;;;;13.18;3.25;;;11.50;95.90;;;;;;5367109;26;20350;-64
2024/04/19 07:32:07;;;;;;;11.93;3.60;;;11.50;95.90;;;;;;5374202;26;20011;-64
2024/04/19 07:34:34;;;;;;;11.63;3.55;;;11.50;95.90;;;;;;5366535;26;19996;-63
2024/04/19 07:36:59;;;;;;;9.75;3.38;;;11.50;95.90;;;;;;5364053;26;20000;-62
2024/04/19 07:39:25;;;;;;;9.98;3.08;;;11.60;95.80;;;;;;5345329;26;20056;-62
2024/04/19 07:41:50;;;;;;;12.63;3.70;;;11.50;95.70;;;;;;5366938;26;20004;-64
2024/04/19 07:44:16;;;;;;;11.70;3.10;;;11.50;95.70;;;;;;5359781;26;20012;-63
2024/04/19 07:46:42;;;;;;;8.77;2.95;;;11.40;95.70;;;;;;5366387;26;20000;-63
2024/04/19 07:49:07;;;;;;;10.95;3.33;;;11.40;95.80;;;;;;5365756;26;20416;-63
2024/04/19 07:51:33;;;;;;;9.77;3.60;;;11.40;95.80;;;;;;5371658;26;20008;-64
2024/04/19 07:53:58;;;;;;;9.68;2.45;;;11.30;95.90;;;;;;5366605;26;20009;-64
2024/04/19 07:56:25;;;;;;;6.97;1.98;;;11.20;95.60;;;;;;5364873;26;20122;-65
2024/04/19 07:58:50;;;;;;;4.40;1.67;;;11.00;95.40;;;;;;5356239;26;20016;-64
2024/04/19 08:01:16;;;;;;;4.82;1.50;;;10.90;95.30;;;;;;5366993;26;20012;-64
2024/04/19 08:03:41;;;;;;;3.65;1.30;;;10.70;95.20;;;;;;5358533;26;20011;-64
2024/04/19 08:06:08;;;;;;;6.20;1.50;;;10.60;95.20;;;;;;5360673;26;20073;-64
2024/04/19 08:08:33;;;;;;;4.82;1.20;;;10.50;95.20;;;;;;5361885;26;20333;-62
2024/04/19 08:11:01;;;;;;;3.80;1.50;;;10.50;95.10;;;;;;5377689;26;20000;-63
2024/04/19 08:13:27;;;;;;;5.00;1.25;;;10.50;95.10;;;;;;5377357;26;20486;-64
2024/04/19 08:15:52;;;;;;;4.20;1.50;;;10.50;95.00;;;;;;5369835;26;20011;-64
2024/04/19 08:18:18;;;;;;;4.35;1.20;;;10.50;94.90;;;;;;5364307;26;19996;-63
2024/04/19 08:20:43;;;;;;;5.95;1.50;;;10.50;95.00;;;;;;5364255;26;20405;-64
2024/04/19 08:23:09;;;;;;;4.10;1.45;;;10.50;95.00;;;;;;5365569;26;19996;-64
2024/04/19 08:25:34;;;;;;;4.07;1.30;;;10.60;95.00;;;;;;5366638;26;20004;-62
2024/04/19 08:28:00;;;;;;;4.30;1.13;;;10.60;94.90;;;;;;5367744;26;20001;-63
2024/04/19 08:30:26;;;;;;;5.78;1.60;;;10.70;95.00;;;;;;5360035;26;20000;-64
2024/04/19 08:32:51;;;;;;;4.85;1.30;;;10.80;95.00;;;;;;5362740;26;20004;-62
2024/04/19 08:35:17;;;;;;;4.43;1.65;;;11.00;94.90;;;;;;5370989;26;20011;-62
2024/04/19 08:37:43;;;;;;;6.20;1.55;;;11.10;94.80;;;;;;5357923;26;20001;-62
2024/04/19 08:40:10;;;;;;;3.75;1.48;;;11.20;94.70;;;;;;5369725;26;20000;-63
2024/04/19 08:42:36;;;;;;;3.30;1.50;;;11.20;94.60;;;;;;5368735;26;19997;-62
2024/04/19 08:45:04;;;;;;;4.65;1.60;;;11.30;94.60;;;;;;5361346;26;20073;-64
2024/04/19 08:47:31;;;;;;;4.25;1.40;;;11.40;94.50;;;;;;5366767;26;20007;-64
2024/04/19 08:49:58;;;;;;;3.58;1.20;;;11.40;94.40;;;;;;5365550;26;20016;-63
2024/04/19 08:52:24;;;;;;;4.05;1.80;;;11.40;94.40;;;;;;5355138;26;20011;-63
2024/04/19 08:54:50;;;;;;;4.05;1.42;;;11.40;94.30;;;;;;5357336;26;20012;-63
2024/04/19 08:57:17;;;;;;;4.68;1.55;;;11.40;94.30;;;;;;5366125;26;20011;-64
2024/04/19 08:59:45;;;;;;;3.72;1.30;;;11.40;94.30;;;;;;5361539;26;20463;-63
2024/04/19 09:02:11;;;;;;;3.40;1.67;;;11.50;94.30;;;;;;5361936;26;20001;-64
2024/04/19 09:04:36;;;;;;;4.25;1.45;;;11.70;94.20;;;;;;5373400;26;20024;-61
2024/04/19 09:07:02;;;;;;;3.00;1.30;;;11.80;94.00;;;;;;5362990;26;20012;-64
2024/04/19 09:09:27;;;;;;;3.00;1.25;;;11.90;93.80;;;;;;5362350;26;19993;-64
2024/04/19 09:11:54;;;;;;;6.53;1.75;;;11.80;93.50;;;;;;5366133;26;20398;-63
2024/04/19 09:14:19;;;;;;;3.58;1.20;;;11.80;93.50;;;;;;5367843;26;20015;-63
2024/04/19 09:16:47;;;;;;;4.75;1.60;;;11.80;93.60;;;;;;5372677;26;19995;-64
2024/04/19 09:19:13;;;;;;;2.35;1.23;;;11.70;93.60;;;;;;5366289;26;20008;-63
2024/04/19 09:21:38;;;;;;;2.78;1.30;;;11.70;93.80;;;;;;5369225;26;20155;-63
2024/04/19 09:24:08;;;;;;;3.25;1.27;;;11.60;93.80;;;;;;5375144;26;19992;-62
2024/04/19 09:26:34;;;;;;;2.10;1.20;;;11.50;93.90;;;;;;5361383;26;20062;-64
2024/04/19 09:29:00;;;;;;;1.90;1.00;;;11.30;94.00;;;;;;5364430;26;20000;-63
2024/04/19 09:31:27;;;;;;;2.58;1.10;;;11.20;94.10;;;;;;5365686;26;19997;-62
2024/04/19 09:33:55;;;;;;;2.33;1.00;;;11.20;94.30;;;;;;5364988;26;20000;-64
2024/04/19 09:36:21;;;;;;;1.67;1.00;;;11.20;94.50;;;;;;5362910;26;20469;-64
2024/04/19 09:38:47;;;;;;;3.25;1.20;;;11.30;94.80;;;;;;5369758;26;20000;-64
2024/04/19 09:41:14;;;;;;;2.72;1.10;;;11.50;94.50;;;;;;5368299;26;20015;-63
2024/04/19 09:43:47;;;;;;;1.85;1.00;;;11.60;94.40;;;;;;5357512;26;20076;-63
2024/04/19 09:46:13;;;;;;;3.95;1.45;;;11.70;94.20;;;;;;5362833;26;20075;-64
2024/04/19 09:48:44;;;;;;;1.90;1.10;;;11.70;94.10;;;;;;5361059;26;20293;-65
2024/04/19 09:51:14;;;;;;;1.88;1.08;;;11.90;94.20;;;;;;5358443;26;20015;-62
2024/04/19 09:53:44;;;;;;;2.63;1.10;;;12.00;94.10;;;;;;5367462;26;19997;-63
2024/04/19 09:56:13;;;;;;;3.70;1.00;;;12.20;94.00;;;;;;5362806;26;20435;-64
2024/04/19 09:58:39;;;;;;;1.42;0.90;;;12.30;93.60;;;;;;5369382;26;20004;-63
2024/04/19 10:01:04;;;;;;;1.73;1.00;;;12.30;93.20;;;;;;5353742;26;20019;-62
2024/04/19 10:03:30;;;;;;;1.17;0.70;;;12.20;93.00;;;;;;5360394;26;20454;-63
2024/04/19 10:05:56;;;;;;;1.00;0.80;;;12.30;92.90;;;;;;5361143;26;20328;-63
2024/04/19 10:08:27;;;;;;;1.20;0.70;;;12.30;92.90;;;;;;5367996;26;20010;-62
2024/04/19 10:10:54;;;;;;;1.43;0.83;;;12.40;92.80;;;;;;5365321;26;20001;-62
2024/04/19 10:13:21;;;;;;;2.13;0.88;;;12.60;92.70;;;;;;5362986;26;20234;-63
2024/04/19 10:15:47;;;;;;;2.60;1.00;;;12.80;92.70;;;;;;5375447;26;20076;-63
2024/04/19 10:18:12;;;;;;;1.20;0.80;;;12.90;92.20;;;;;;5348042;26;20013;-64
2024/04/19 10:20:40;;;;;;;0.80;0.70;;;12.90;91.80;;;;;;5363993;26;19992;-65
2024/04/19 10:23:06;;;;;;;1.90;0.73;;;12.80;91.10;;;;;;5361074;26;20336;-64
2024/04/19 10:25:38;;;;;;;1.95;0.88;;;12.60;90.90;;;;;;5362713;26;20011;-64
2024/04/19 10:28:10;;;;;;;1.08;0.70;;;12.50;90.90;;;;;;5366058;26;20019;-63
2024/04/19 10:30:37;;;;;;;1.58;0.80;;;12.50;90.90;;;;;;5371524;26;19996;-64
2024/04/19 10:33:03;;;;;;;1.10;0.70;;;12.60;91.00;;;;;;5358922;26;20003;-63
2024/04/19 10:35:35;;;;;;;1.85;0.70;;;12.60;91.00;;;;;;5358781;26;20016;-62
2024/04/19 10:38:01;;;;;;;2.10;0.90;;;12.60;91.10;;;;;;5363079;26;20000;-63
2024/04/19 10:40:27;;;;;;;2.75;1.08;;;12.60;91.00;;;;;;5359243;26;20001;-61
2024/04/19 10:43:06;;;;;;;1.58;0.70;;;12.50;90.80;;;;;;5362965;26;20004;-62
2024/04/19 10:45:32;;;;;;;2.20;0.90;;;12.40;91.00;;;;;;5361134;26;20524;-63
2024/04/19 10:47:58;;;;;;;1.55;0.70;;;12.40;91.10;;;;;;5354209;26;20353;-63
2024/04/19 10:50:25;;;;;;;1.25;0.80;;;12.30;91.20;;;;;;5359901;26;20396;-63
2024/04/19 10:52:51;;;;;;;4.03;0.98;;;12.30;91.40;;;;;;5364416;26;20000;-63
2024/04/19 10:55:17;;;;;;;2.58;0.80;;;12.20;91.40;;;;;;5377072;26;20011;-63
2024/04/19 10:57:43;;;;;;;2.38;0.80;;;12.10;91.40;;;;;;5361734;26;20018;-64
2024/04/19 11:00:09;;;;;;;1.33;0.80;;;11.90;91.40;;;;;;5367627;26;19997;-64
2024/04/19 11:02:37;;;;;;;1.27;0.77;;;11.70;91.50;;;;;;5357991;26;20036;-63
2024/04/19 11:05:04;;;;;;;1.15;0.60;;;11.60;91.40;;;;;;5361934;26;20023;-63
2024/04/19 11:07:30;;;;;;;0.80;0.70;;;11.40;91.30;;;;;;5354730;26;20004;-64
2024/04/19 11:09:56;;;;;;;1.40;0.77;;;11.30;91.30;;;;;;5353736;26;19997;-63
2024/04/19 11:12:23;;;;;;;1.17;0.70;;;11.10;91.30;;;;;;5354660;26;19996;-63
2024/04/19 11:14:48;;;;;;;2.25;0.70;;;11.00;91.30;;;;;;5348762;26;20011;-63
2024/04/19 11:17:15;;;;;;;1.85;0.80;;;10.80;91.30;;;;;;5363946;26;19993;-63
2024/04/19 11:19:40;;;;;;;2.72;0.93;;;10.70;91.40;;;;;;5358288;26;20031;-63
2024/04/19 11:22:06;;;;;;;1.98;0.80;;;10.60;91.50;;;;;;5356046;26;20012;-62
2024/04/19 11:24:34;;;;;;;3.60;0.82;;;10.60;91.60;;;;;;5364170;26;20020;-64
2024/04/19 11:27:00;;;;;;;1.95;1.15;;;10.70;91.80;;;;;;5360161;26;20001;-63
2024/04/19 11:29:25;;;;;;;1.65;0.80;;;10.90;91.90;;;;;;5352390;26;20009;-62
2024/04/19 11:31:51;;;;;;;3.83;0.90;;;11.10;92.00;;;;;;5355587;26;20077;-62
2024/04/19 11:34:16;;;;;;;1.88;1.00;;;11.40;92.20;;;;;;5357538;26;20001;-63
2024/04/19 11:36:43;;;;;;;2.30;1.10;;;11.60;92.10;;;;;;5363281;26;20012;-64
2024/04/19 11:39:11;;;;;;;4.40;1.33;;;11.60;91.80;;;;;;5358468;26;20050;-64
2024/04/19 11:41:39;;;;;;;3.20;0.80;;;11.50;91.50;;;;;;5351353;26;20037;-63
2024/04/19 11:44:07;;;;;;;1.13;0.70;;;11.40;91.50;;;;;;5368719;26;20000;-63
2024/04/19 11:46:33;;;;;;;2.72;0.85;;;11.30;91.40;;;;;;5356271;26;20035;-64
2024/04/19 11:48:59;;;;;;;1.48;1.00;;;11.30;91.30;;;;;;5375411;26;20005;-61
2024/04/19 11:51:25;;;;;;;1.58;1.00;;;11.20;91.30;;;;;;5354986;26;20001;-61
2024/04/19 11:53:51;;;;;;;2.72;1.00;;;11.20;91.30;;;;;;5358452;26;20000;-61
2024/04/19 11:56:16;;;;;;;4.47;1.40;;;11.30;91.40;;;;;;5364504;26;20296;-63
2024/04/19 11:58:43;;;;;;;2.40;0.95;;;11.20;91.40;;;;;;5361193;26;20447;-64
2024/04/19 12:01:09;;;;;;;3.25;0.98;;;11.20;91.50;;;;;;5366855;26;19996;-61
2024/04/19 12:03:34;;;;;;;2.63;0.93;;;11.10;91.40;;;;;;5364331;26;20033;-64
2024/04/19 12:06:00;;;;;;;2.00;0.90;;;11.00;91.40;;;;;;5351451;26;20000;-63
2024/04/19 12:08:25;;;;;;;3.60;1.00;;;10.90;91.50;;;;;;5366676;26;20043;-64
2024/04/19 12:10:51;;;;;;;2.75;1.00;;;11.10;91.70;;;;;;5361482;26;20482;-64
2024/04/19 12:13:17;;;;;;;2.00;1.30;;;11.20;91.80;;;;;;5355742;26;20466;-62
2024/04/19 12:15:42;;;;;;;5.43;1.35;;;11.40;91.80;;;;;;5359028;26;20012;-64
2024/04/19 12:18:08;;;;;;;3.55;1.17;;;11.50;91.70;;;;;;5366813;26;19996;-63
2024/04/19 12:20:33;;;;;;;4.40;1.25;;;11.60;91.60;;;;;;5354708;26;20037;-62
2024/04/19 12:22:59;;;;;;;4.47;1.17;;;11.70;91.10;;;;;;5349615;26;20019;-61
2024/04/19 12:25:24;;;;;;;3.80;1.05;;;11.50;91.00;;;;;;5362322;26;20004;-64
2024/04/19 12:27:50;;;;;;;2.80;1.00;;;11.50;91.10;;;;;;5366374;26;20000;-64
2024/04/19 12:30:15;;;;;;;4.63;1.05;;;11.40;91.10;;;;;;5361251;26;20024;-63
2024/04/19 12:32:41;;;;;;;2.38;0.85;;;11.30;91.00;;;;;;5368604;26;20019;-64
2024/04/19 12:35:09;;;;;;;3.55;1.00;;;11.20;90.90;;;;;;5370765;26;20004;-63
2024/04/19 12:37:35;;;;;;;4.72;1.20;;;11.10;91.00;;;;;;5362380;26;20455;-64
2024/04/19 12:40:01;;;;;;;5.38;1.25;;;11.00;91.00;;;;;;5354604;26;20001;-64
2024/04/19 12:42:27;;;;;;;3.97;0.90;;;11.00;91.20;;;;;;5363035;26;20532;-63
2024/04/19 12:44:53;;;;;;;3.42;1.08;;;10.90;91.20;;;;;;5347383;26;20036;-63
2024/04/19 12:47:20;;;;;;;4.80;1.15;;;10.90;91.30;;;;;;5364724;26;20076;-64
2024/04/19 12:49:46;;;;;;;5.65;1.40;;;11.00;91.40;;;;;;5359503;26;20043;-63